sensor_id;sensor_type;location;lat;lon;timestamp;temperature;humidity
851;DHT22;412;51.400;7.480;2023-09-08T00:01:15;20.30;99.90
851;DHT22;412;51.400;7.480;2023-09-08T00:03:41;20.30;99.90
851;DHT22;412;51.400;7.480;2023-09-08T00:06:07;20.20;99.90
851;DHT22;412;51.400;7.480;2023-09-08T00:08:33;20.20;99.90
851;DHT22;412;51.400;7.480;2023-09-08T00:10:58;20.20;99.90
851;DHT22;412;51.400;7.480;2023-09-08T00:13:24;20.20;99.90
851;DHT22;412;51.400;7.480;2023-09-08T00:15:50;20.20;99.90
851;DHT22;412;51.400;7.480;2023-09-08T00:18:15;20.30;99.90
851;DHT22;412;51.400;7.480;2023-09-08T00:20:41;20.30;99.90
851;DHT22;412;51.400;7.480;2023-09-08T00:23:07;20.20;99.90
851;DHT22;412;51.400;7.480;2023-09-08T00:25:33;20.20;99.90
851;DHT22;412;51.400;7.480;2023-09-08T00:28:00;20.20;99.90
851;DHT22;412;51.400;7.480;2023-09-08T00:30:26;20.10;99.90
851;DHT22;412;51.400;7.480;2023-09-08T00:32:51;20.10;99.90
851;DHT22;412;51.400;7.480;2023-09-08T00:35:17;19.90;99.90
851;DHT22;412;51.400;7.480;2023-09-08T00:37:43;19.90;99.90
851;DHT22;412;51.400;7.480;2023-09-08T00:40:09;19.90;99.90
851;DHT22;412;51.400;7.480;2023-09-08T00:42:35;19.90;99.90
851;DHT22;412;51.400;7.480;2023-09-08T00:45:01;19.90;99.90
851;DHT22;412;51.400;7.480;2023-09-08T00:47:28;19.90;99.90
851;DHT22;412;51.400;7.480;2023-09-08T00:49:54;19.90;99.90
851;DHT22;412;51.400;7.480;2023-09-08T00:52:19;19.90;99.90
851;DHT22;412;51.400;7.480;2023-09-08T00:54:45;19.90;99.90
851;DHT22;412;51.400;7.480;2023-09-08T00:57:11;19.90;99.90
851;DHT22;412;51.400;7.480;2023-09-08T00:59:37;19.80;99.90
851;DHT22;412;51.400;7.480;2023-09-08T01:02:04;19.80;99.90
851;DHT22;412;51.400;7.480;2023-09-08T01:04:30;19.80;99.90
851;DHT22;412;51.400;7.480;2023-09-08T01:06:57;19.80;99.90
851;DHT22;412;51.400;7.480;2023-09-08T01:09:24;19.80;99.90
851;DHT22;412;51.400;7.480;2023-09-08T01:11:50;19.80;99.90
851;DHT22;412;51.400;7.480;2023-09-08T01:14:19;19.80;99.90
851;DHT22;412;51.400;7.480;2023-09-08T01:16:47;19.70;99.90
851;DHT22;412;51.400;7.480;2023-09-08T01:19:15;19.70;99.90
851;DHT22;412;51.400;7.480;2023-09-08T01:21:58;19.70;99.90
851;DHT22;412;51.400;7.480;2023-09-08T01:27:16;19.70;99.90
851;DHT22;412;51.400;7.480;2023-09-08T01:29:44;19.60;99.90
851;DHT22;412;51.400;7.480;2023-09-08T01:32:11;19.60;99.90
851;DHT22;412;51.400;7.480;2023-09-08T01:34:37;19.60;99.90
851;DHT22;412;51.400;7.480;2023-09-08T01:37:06;19.60;99.90
851;DHT22;412;51.400;7.480;2023-09-08T01:39:32;19.50;99.90
851;DHT22;412;51.400;7.480;2023-09-08T01:41:58;19.50;99.90
851;DHT22;412;51.400;7.480;2023-09-08T01:44:24;19.50;99.90
851;DHT22;412;51.400;7.480;2023-09-08T01:46:49;19.50;99.90
851;DHT22;412;51.400;7.480;2023-09-08T01:49:16;19.50;99.90
851;DHT22;412;51.400;7.480;2023-09-08T01:51:42;19.50;99.90
851;DHT22;412;51.400;7.480;2023-09-08T01:54:08;19.50;99.90
851;DHT22;412;51.400;7.480;2023-09-08T01:56:35;19.50;99.90
851;DHT22;412;51.400;7.480;2023-09-08T01:59:00;19.40;99.90
851;DHT22;412;51.400;7.480;2023-09-08T02:01:26;19.40;99.90
851;DHT22;412;51.400;7.480;2023-09-08T02:03:52;19.30;99.90
851;DHT22;412;51.400;7.480;2023-09-08T02:06:18;19.40;99.90
851;DHT22;412;51.400;7.480;2023-09-08T02:08:43;19.30;99.90
851;DHT22;412;51.400;7.480;2023-09-08T02:11:09;19.30;99.90
851;DHT22;412;51.400;7.480;2023-09-08T02:13:35;19.30;99.90
851;DHT22;412;51.400;7.480;2023-09-08T02:16:00;19.30;99.90
851;DHT22;412;51.400;7.480;2023-09-08T02:18:26;19.40;99.90
851;DHT22;412;51.400;7.480;2023-09-08T02:20:52;19.40;99.90
851;DHT22;412;51.400;7.480;2023-09-08T02:23:17;19.40;99.90
851;DHT22;412;51.400;7.480;2023-09-08T02:25:43;19.40;99.90
851;DHT22;412;51.400;7.480;2023-09-08T02:28:09;19.40;99.90
851;DHT22;412;51.400;7.480;2023-09-08T02:30:35;19.40;99.90
851;DHT22;412;51.400;7.480;2023-09-08T02:33:01;19.40;99.90
851;DHT22;412;51.400;7.480;2023-09-08T02:35:28;19.40;99.90
851;DHT22;412;51.400;7.480;2023-09-08T02:37:54;19.40;99.90
851;DHT22;412;51.400;7.480;2023-09-08T02:40:20;19.40;99.90
851;DHT22;412;51.400;7.480;2023-09-08T02:42:46;19.40;99.90
851;DHT22;412;51.400;7.480;2023-09-08T02:45:12;19.30;99.90
851;DHT22;412;51.400;7.480;2023-09-08T02:47:37;19.30;99.90
851;DHT22;412;51.400;7.480;2023-09-08T02:50:03;19.30;99.90
851;DHT22;412;51.400;7.480;2023-09-08T02:52:30;19.30;99.90
851;DHT22;412;51.400;7.480;2023-09-08T02:54:56;19.30;99.90
851;DHT22;412;51.400;7.480;2023-09-08T02:57:21;19.30;99.90
851;DHT22;412;51.400;7.480;2023-09-08T02:59:50;19.30;99.90
851;DHT22;412;51.400;7.480;2023-09-08T03:02:17;19.30;99.90
851;DHT22;412;51.400;7.480;2023-09-08T03:04:42;19.30;99.90
851;DHT22;412;51.400;7.480;2023-09-08T03:07:08;19.30;99.90
851;DHT22;412;51.400;7.480;2023-09-08T03:09:34;19.20;99.90
851;DHT22;412;51.400;7.480;2023-09-08T03:12:00;19.20;99.90
851;DHT22;412;51.400;7.480;2023-09-08T03:14:25;19.10;99.90
851;DHT22;412;51.400;7.480;2023-09-08T03:16:51;19.10;99.90
851;DHT22;412;51.400;7.480;2023-09-08T03:19:17;19.10;99.90
851;DHT22;412;51.400;7.480;2023-09-08T03:21:43;19.10;99.90
851;DHT22;412;51.400;7.480;2023-09-08T03:24:08;19.00;99.90
851;DHT22;412;51.400;7.480;2023-09-08T03:26:34;19.00;99.90
851;DHT22;412;51.400;7.480;2023-09-08T03:29:00;19.00;99.90
851;DHT22;412;51.400;7.480;2023-09-08T03:31:26;19.00;99.90
851;DHT22;412;51.400;7.480;2023-09-08T03:33:52;19.00;99.90
851;DHT22;412;51.400;7.480;2023-09-08T03:36:18;19.00;99.90
851;DHT22;412;51.400;7.480;2023-09-08T03:38:44;19.00;99.90
851;DHT22;412;51.400;7.480;2023-09-08T03:41:09;19.00;99.90
851;DHT22;412;51.400;7.480;2023-09-08T03:43:36;19.00;99.90
851;DHT22;412;51.400;7.480;2023-09-08T03:46:02;18.90;99.90
851;DHT22;412;51.400;7.480;2023-09-08T03:48:27;19.00;99.90
851;DHT22;412;51.400;7.480;2023-09-08T03:50:53;18.90;99.90
851;DHT22;412;51.400;7.480;2023-09-08T03:53:19;18.90;99.90
851;DHT22;412;51.400;7.480;2023-09-08T03:55:45;18.90;99.90
851;DHT22;412;51.400;7.480;2023-09-08T03:58:10;18.90;99.90
851;DHT22;412;51.400;7.480;2023-09-08T04:00:36;18.90;99.90
851;DHT22;412;51.400;7.480;2023-09-08T04:03:02;18.90;99.90
851;DHT22;412;51.400;7.480;2023-09-08T04:05:28;18.90;99.90
851;DHT22;412;51.400;7.480;2023-09-08T04:07:54;18.90;99.90
851;DHT22;412;51.400;7.480;2023-09-08T04:10:22;18.90;99.90
851;DHT22;412;51.400;7.480;2023-09-08T04:12:52;18.80;99.90
851;DHT22;412;51.400;7.480;2023-09-08T04:15:18;18.80;99.90
851;DHT22;412;51.400;7.480;2023-09-08T04:17:44;18.80;99.90
851;DHT22;412;51.400;7.480;2023-09-08T04:20:10;18.80;99.90
851;DHT22;412;51.400;7.480;2023-09-08T04:22:36;18.80;99.90
851;DHT22;412;51.400;7.480;2023-09-08T04:25:02;18.80;99.90
851;DHT22;412;51.400;7.480;2023-09-08T04:27:28;18.80;99.90
851;DHT22;412;51.400;7.480;2023-09-08T04:29:54;18.80;99.90
851;DHT22;412;51.400;7.480;2023-09-08T04:32:20;18.70;99.90
851;DHT22;412;51.400;7.480;2023-09-08T04:34:45;18.70;99.90
851;DHT22;412;51.400;7.480;2023-09-08T04:37:11;18.70;99.90
851;DHT22;412;51.400;7.480;2023-09-08T04:39:37;18.70;99.90
851;DHT22;412;51.400;7.480;2023-09-08T04:42:03;18.70;99.90
851;DHT22;412;51.400;7.480;2023-09-08T04:44:29;18.70;99.90
851;DHT22;412;51.400;7.480;2023-09-08T04:46:55;18.70;99.90
851;DHT22;412;51.400;7.480;2023-09-08T04:49:21;18.60;99.90
851;DHT22;412;51.400;7.480;2023-09-08T04:51:46;18.60;99.90
851;DHT22;412;51.400;7.480;2023-09-08T04:54:12;18.60;99.90
851;DHT22;412;51.400;7.480;2023-09-08T04:56:40;18.60;99.90
851;DHT22;412;51.400;7.480;2023-09-08T04:59:06;18.60;99.90
851;DHT22;412;51.400;7.480;2023-09-08T05:01:32;18.60;99.90
851;DHT22;412;51.400;7.480;2023-09-08T05:04:01;18.60;99.90
851;DHT22;412;51.400;7.480;2023-09-08T05:06:27;18.50;99.90
851;DHT22;412;51.400;7.480;2023-09-08T05:08:52;18.40;99.90
851;DHT22;412;51.400;7.480;2023-09-08T05:11:18;18.40;99.90
851;DHT22;412;51.400;7.480;2023-09-08T05:13:46;18.50;99.90
851;DHT22;412;51.400;7.480;2023-09-08T05:16:11;18.40;99.90
851;DHT22;412;51.400;7.480;2023-09-08T05:18:38;18.40;99.90
851;DHT22;412;51.400;7.480;2023-09-08T05:21:04;18.40;99.90
851;DHT22;412;51.400;7.480;2023-09-08T05:23:30;18.40;99.90
851;DHT22;412;51.400;7.480;2023-09-08T05:25:56;18.40;99.90
851;DHT22;412;51.400;7.480;2023-09-08T05:28:22;18.50;99.90
851;DHT22;412;51.400;7.480;2023-09-08T05:30:50;18.50;99.90
851;DHT22;412;51.400;7.480;2023-09-08T05:33:16;18.50;99.90
851;DHT22;412;51.400;7.480;2023-09-08T05:35:43;18.50;99.90
851;DHT22;412;51.400;7.480;2023-09-08T05:38:09;18.50;99.90
851;DHT22;412;51.400;7.480;2023-09-08T05:40:38;18.60;99.90
851;DHT22;412;51.400;7.480;2023-09-08T05:43:04;18.50;99.90
851;DHT22;412;51.400;7.480;2023-09-08T05:45:31;18.50;99.90
851;DHT22;412;51.400;7.480;2023-09-08T05:47:57;18.50;99.90
851;DHT22;412;51.400;7.480;2023-09-08T05:50:25;18.50;99.90
851;DHT22;412;51.400;7.480;2023-09-08T05:52:51;18.60;99.90
851;DHT22;412;51.400;7.480;2023-09-08T05:55:17;18.60;99.90
851;DHT22;412;51.400;7.480;2023-09-08T05:57:43;18.60;99.90
851;DHT22;412;51.400;7.480;2023-09-08T06:00:09;18.70;99.90
851;DHT22;412;51.400;7.480;2023-09-08T06:02:35;18.70;99.90
851;DHT22;412;51.400;7.480;2023-09-08T06:05:02;18.80;99.90
851;DHT22;412;51.400;7.480;2023-09-08T06:07:28;18.80;99.90
851;DHT22;412;51.400;7.480;2023-09-08T06:09:54;18.90;99.90
851;DHT22;412;51.400;7.480;2023-09-08T06:12:19;19.20;99.90
851;DHT22;412;51.400;7.480;2023-09-08T06:14:45;19.50;99.90
851;DHT22;412;51.400;7.480;2023-09-08T06:17:11;19.80;99.90
851;DHT22;412;51.400;7.480;2023-09-08T06:19:36;20.10;99.90
851;DHT22;412;51.400;7.480;2023-09-08T06:22:02;20.30;99.90
851;DHT22;412;51.400;7.480;2023-09-08T06:24:28;20.40;99.90
851;DHT22;412;51.400;7.480;2023-09-08T06:26:54;20.30;99.90
851;DHT22;412;51.400;7.480;2023-09-08T06:29:19;20.20;99.90
851;DHT22;412;51.400;7.480;2023-09-08T06:31:45;20.30;99.90
851;DHT22;412;51.400;7.480;2023-09-08T06:34:11;20.60;99.90
851;DHT22;412;51.400;7.480;2023-09-08T06:36:37;20.80;99.90
851;DHT22;412;51.400;7.480;2023-09-08T06:39:02;20.90;99.90
851;DHT22;412;51.400;7.480;2023-09-08T06:41:30;20.90;99.90
851;DHT22;412;51.400;7.480;2023-09-08T06:43:56;20.90;99.90
851;DHT22;412;51.400;7.480;2023-09-08T06:46:22;21.10;99.90
851;DHT22;412;51.400;7.480;2023-09-08T06:48:48;21.30;99.90
851;DHT22;412;51.400;7.480;2023-09-08T06:51:13;21.40;99.90
851;DHT22;412;51.400;7.480;2023-09-08T06:53:39;21.60;99.90
851;DHT22;412;51.400;7.480;2023-09-08T06:56:05;21.70;99.90
851;DHT22;412;51.400;7.480;2023-09-08T06:58:31;21.80;99.90
851;DHT22;412;51.400;7.480;2023-09-08T07:00:56;21.90;99.90
851;DHT22;412;51.400;7.480;2023-09-08T07:03:22;21.90;99.90
851;DHT22;412;51.400;7.480;2023-09-08T07:05:49;21.90;99.90
851;DHT22;412;51.400;7.480;2023-09-08T07:08:15;22.00;99.90
851;DHT22;412;51.400;7.480;2023-09-08T07:10:42;22.00;99.90
851;DHT22;412;51.400;7.480;2023-09-08T07:13:08;22.10;99.90
851;DHT22;412;51.400;7.480;2023-09-08T07:15:34;22.20;99.90
851;DHT22;412;51.400;7.480;2023-09-08T07:18:00;22.30;99.90
851;DHT22;412;51.400;7.480;2023-09-08T07:20:25;22.40;99.90
851;DHT22;412;51.400;7.480;2023-09-08T07:22:51;22.50;99.90
851;DHT22;412;51.400;7.480;2023-09-08T07:25:17;22.60;99.90
851;DHT22;412;51.400;7.480;2023-09-08T07:27:43;22.60;99.90
851;DHT22;412;51.400;7.480;2023-09-08T07:30:09;22.60;99.90
851;DHT22;412;51.400;7.480;2023-09-08T07:32:34;22.60;99.90
851;DHT22;412;51.400;7.480;2023-09-08T07:35:00;22.40;99.90
851;DHT22;412;51.400;7.480;2023-09-08T07:37:26;22.50;99.90
851;DHT22;412;51.400;7.480;2023-09-08T07:39:52;22.50;99.90
851;DHT22;412;51.400;7.480;2023-09-08T07:42:18;22.50;99.90
851;DHT22;412;51.400;7.480;2023-09-08T07:44:44;22.60;99.90
851;DHT22;412;51.400;7.480;2023-09-08T07:47:10;22.60;99.90
851;DHT22;412;51.400;7.480;2023-09-08T07:49:36;22.70;99.90
851;DHT22;412;51.400;7.480;2023-09-08T07:52:02;22.70;99.90
851;DHT22;412;51.400;7.480;2023-09-08T07:54:30;22.60;99.90
851;DHT22;412;51.400;7.480;2023-09-08T07:56:56;22.70;99.90
851;DHT22;412;51.400;7.480;2023-09-08T07:59:22;22.60;99.90
851;DHT22;412;51.400;7.480;2023-09-08T08:01:47;22.60;99.90
851;DHT22;412;51.400;7.480;2023-09-08T08:04:13;22.60;99.90
851;DHT22;412;51.400;7.480;2023-09-08T08:06:39;22.60;99.90
851;DHT22;412;51.400;7.480;2023-09-08T08:09:05;22.50;99.90
851;DHT22;412;51.400;7.480;2023-09-08T08:11:30;22.50;99.90
851;DHT22;412;51.400;7.480;2023-09-08T08:13:56;22.60;99.90
851;DHT22;412;51.400;7.480;2023-09-08T08:16:23;22.60;99.90
851;DHT22;412;51.400;7.480;2023-09-08T08:18:48;22.70;99.90
851;DHT22;412;51.400;7.480;2023-09-08T08:21:14;22.70;99.90
851;DHT22;412;51.400;7.480;2023-09-08T08:23:40;22.80;99.90
851;DHT22;412;51.400;7.480;2023-09-08T08:26:06;22.80;99.90
851;DHT22;412;51.400;7.480;2023-09-08T08:28:32;22.80;99.90
851;DHT22;412;51.400;7.480;2023-09-08T08:30:58;22.80;99.90
851;DHT22;412;51.400;7.480;2023-09-08T08:33:24;22.80;99.90
851;DHT22;412;51.400;7.480;2023-09-08T08:35:52;22.90;99.90
851;DHT22;412;51.400;7.480;2023-09-08T08:38:18;23.00;99.90
851;DHT22;412;51.400;7.480;2023-09-08T08:40:44;23.10;99.90
851;DHT22;412;51.400;7.480;2023-09-08T08:43:10;23.20;99.90
851;DHT22;412;51.400;7.480;2023-09-08T08:45:37;23.30;99.90
851;DHT22;412;51.400;7.480;2023-09-08T08:48:04;23.30;99.90
851;DHT22;412;51.400;7.480;2023-09-08T08:50:32;23.40;99.90
851;DHT22;412;51.400;7.480;2023-09-08T08:52:58;23.50;99.90
851;DHT22;412;51.400;7.480;2023-09-08T08:55:25;23.50;99.90
851;DHT22;412;51.400;7.480;2023-09-08T08:57:51;23.50;99.90
851;DHT22;412;51.400;7.480;2023-09-08T09:00:18;23.60;99.90
851;DHT22;412;51.400;7.480;2023-09-08T09:02:45;23.80;99.90
851;DHT22;412;51.400;7.480;2023-09-08T09:05:13;23.80;99.90
851;DHT22;412;51.400;7.480;2023-09-08T09:07:42;23.90;99.90
851;DHT22;412;51.400;7.480;2023-09-08T09:10:09;24.10;99.90
851;DHT22;412;51.400;7.480;2023-09-08T09:12:39;24.20;99.90
851;DHT22;412;51.400;7.480;2023-09-08T09:15:06;24.40;99.90
851;DHT22;412;51.400;7.480;2023-09-08T09:17:36;24.50;99.90
851;DHT22;412;51.400;7.480;2023-09-08T09:20:18;24.70;99.90
851;DHT22;412;51.400;7.480;2023-09-08T09:22:46;24.90;99.90
851;DHT22;412;51.400;7.480;2023-09-08T09:25:23;25.10;99.90
851;DHT22;412;51.400;7.480;2023-09-08T09:28:00;25.40;99.90
851;DHT22;412;51.400;7.480;2023-09-08T09:30:27;25.70;99.90
851;DHT22;412;51.400;7.480;2023-09-08T09:33:03;26.00;99.90
851;DHT22;412;51.400;7.480;2023-09-08T09:35:45;26.30;99.90
851;DHT22;412;51.400;7.480;2023-09-08T09:38:12;26.70;99.90
851;DHT22;412;51.400;7.480;2023-09-08T09:40:38;27.00;99.90
851;DHT22;412;51.400;7.480;2023-09-08T09:43:05;27.20;99.90
851;DHT22;412;51.400;7.480;2023-09-08T09:45:33;27.50;99.90
851;DHT22;412;51.400;7.480;2023-09-08T09:47:59;27.80;98.70
851;DHT22;412;51.400;7.480;2023-09-08T09:50:34;28.10;97.50
851;DHT22;412;51.400;7.480;2023-09-08T09:53:13;28.30;96.50
851;DHT22;412;51.400;7.480;2023-09-08T09:55:41;28.70;97.90
851;DHT22;412;51.400;7.480;2023-09-08T09:58:09;28.90;91.70
851;DHT22;412;51.400;7.480;2023-09-08T10:00:36;29.10;92.60
851;DHT22;412;51.400;7.480;2023-09-08T10:03:04;29.40;93.30
851;DHT22;412;51.400;7.480;2023-09-08T10:05:31;29.70;92.30
851;DHT22;412;51.400;7.480;2023-09-08T10:07:57;30.00;91.20
851;DHT22;412;51.400;7.480;2023-09-08T10:10:26;30.20;91.50
851;DHT22;412;51.400;7.480;2023-09-08T10:12:55;30.50;90.30
851;DHT22;412;51.400;7.480;2023-09-08T10:15:22;30.60;83.60
851;DHT22;412;51.400;7.480;2023-09-08T10:17:55;30.70;82.80
851;DHT22;412;51.400;7.480;2023-09-08T10:20:27;31.00;87.80
851;DHT22;412;51.400;7.480;2023-09-08T10:23:26;31.20;82.80
851;DHT22;412;51.400;7.480;2023-09-08T10:25:58;31.30;82.50
851;DHT22;412;51.400;7.480;2023-09-08T10:28:25;31.50;79.20
851;DHT22;412;51.400;7.480;2023-09-08T10:30:52;31.40;77.00
851;DHT22;412;51.400;7.480;2023-09-08T10:33:19;31.30;73.80
851;DHT22;412;51.400;7.480;2023-09-08T10:35:46;31.30;76.40
851;DHT22;412;51.400;7.480;2023-09-08T10:38:30;31.50;79.20
851;DHT22;412;51.400;7.480;2023-09-08T10:43:45;31.80;73.60
851;DHT22;412;51.400;7.480;2023-09-08T10:46:21;32.00;75.30
851;DHT22;412;51.400;7.480;2023-09-08T10:48:48;32.20;73.00
851;DHT22;412;51.400;7.480;2023-09-08T10:51:15;32.30;74.10
851;DHT22;412;51.400;7.480;2023-09-08T10:53:41;32.50;72.00
851;DHT22;412;51.400;7.480;2023-09-08T10:56:07;32.40;65.90
851;DHT22;412;51.400;7.480;2023-09-08T10:58:35;32.10;67.70
851;DHT22;412;51.400;7.480;2023-09-08T11:01:04;32.20;71.70
851;DHT22;412;51.400;7.480;2023-09-08T11:06:03;32.40;66.40
851;DHT22;412;51.400;7.480;2023-09-08T11:08:30;32.30;66.20
851;DHT22;412;51.400;7.480;2023-09-08T11:10:56;32.20;66.70
851;DHT22;412;51.400;7.480;2023-09-08T11:13:22;32.30;64.10
851;DHT22;412;51.400;7.480;2023-09-08T11:15:50;32.40;65.50
851;DHT22;412;51.400;7.480;2023-09-08T11:18:16;32.40;65.90
851;DHT22;412;51.400;7.480;2023-09-08T11:20:42;32.50;64.00
851;DHT22;412;51.400;7.480;2023-09-08T11:23:10;32.60;64.70
851;DHT22;412;51.400;7.480;2023-09-08T11:25:36;32.80;64.00
851;DHT22;412;51.400;7.480;2023-09-08T11:28:02;32.70;61.70
851;DHT22;412;51.400;7.480;2023-09-08T11:30:28;32.60;63.30
851;DHT22;412;51.400;7.480;2023-09-08T11:32:54;32.70;62.80
851;DHT22;412;51.400;7.480;2023-09-08T11:35:20;32.80;66.00
851;DHT22;412;51.400;7.480;2023-09-08T11:37:46;32.90;64.60
851;DHT22;412;51.400;7.480;2023-09-08T11:40:12;33.00;66.00
851;DHT22;412;51.400;7.480;2023-09-08T11:42:40;33.10;66.20
851;DHT22;412;51.400;7.480;2023-09-08T11:45:18;33.20;64.70
851;DHT22;412;51.400;7.480;2023-09-08T11:47:47;33.30;61.30
851;DHT22;412;51.400;7.480;2023-09-08T11:50:15;33.30;61.70
851;DHT22;412;51.400;7.480;2023-09-08T11:52:44;33.20;59.10
851;DHT22;412;51.400;7.480;2023-09-08T11:55:11;33.20;59.10
851;DHT22;412;51.400;7.480;2023-09-08T11:57:39;33.20;60.70
851;DHT22;412;51.400;7.480;2023-09-08T12:00:06;33.20;63.60
851;DHT22;412;51.400;7.480;2023-09-08T12:02:35;33.30;63.40
851;DHT22;412;51.400;7.480;2023-09-08T12:05:03;33.30;61.50
851;DHT22;412;51.400;7.480;2023-09-08T12:07:29;33.40;59.70
851;DHT22;412;51.400;7.480;2023-09-08T12:09:55;33.50;59.30
851;DHT22;412;51.400;7.480;2023-09-08T12:12:21;33.30;58.70
851;DHT22;412;51.400;7.480;2023-09-08T12:14:46;33.00;56.70
851;DHT22;412;51.400;7.480;2023-09-08T12:17:12;32.80;59.50
851;DHT22;412;51.400;7.480;2023-09-08T12:19:42;32.80;58.60
851;DHT22;412;51.400;7.480;2023-09-08T12:22:08;32.70;61.00
851;DHT22;412;51.400;7.480;2023-09-08T12:27:14;32.60;59.60
851;DHT22;412;51.400;7.480;2023-09-08T12:29:54;32.40;57.10
851;DHT22;412;51.400;7.480;2023-09-08T12:32:20;32.20;58.50
851;DHT22;412;51.400;7.480;2023-09-08T12:34:46;32.00;58.40
851;DHT22;412;51.400;7.480;2023-09-08T12:37:12;31.90;60.20
851;DHT22;412;51.400;7.480;2023-09-08T12:39:40;31.80;60.60
851;DHT22;412;51.400;7.480;2023-09-08T12:42:06;31.80;62.20
851;DHT22;412;51.400;7.480;2023-09-08T12:44:32;31.70;64.80
851;DHT22;412;51.400;7.480;2023-09-08T12:46:58;31.60;62.40
851;DHT22;412;51.400;7.480;2023-09-08T12:49:24;31.40;62.30
851;DHT22;412;51.400;7.480;2023-09-08T12:51:49;31.10;62.40
851;DHT22;412;51.400;7.480;2023-09-08T12:54:15;31.00;62.20
851;DHT22;412;51.400;7.480;2023-09-08T12:56:41;31.00;65.10
851;DHT22;412;51.400;7.480;2023-09-08T12:59:07;31.00;65.30
851;DHT22;412;51.400;7.480;2023-09-08T13:01:36;31.00;65.60
851;DHT22;412;51.400;7.480;2023-09-08T13:04:02;31.00;61.20
851;DHT22;412;51.400;7.480;2023-09-08T13:06:28;31.00;61.70
851;DHT22;412;51.400;7.480;2023-09-08T13:08:53;30.90;62.70
851;DHT22;412;51.400;7.480;2023-09-08T13:11:19;31.00;66.20
851;DHT22;412;51.400;7.480;2023-09-08T13:13:45;31.10;67.50
851;DHT22;412;51.400;7.480;2023-09-08T13:16:11;31.10;67.20
851;DHT22;412;51.400;7.480;2023-09-08T13:18:36;31.10;65.70
851;DHT22;412;51.400;7.480;2023-09-08T13:21:04;31.10;67.00
851;DHT22;412;51.400;7.480;2023-09-08T13:23:30;31.20;69.00
851;DHT22;412;51.400;7.480;2023-09-08T13:25:59;31.30;67.20
851;DHT22;412;51.400;7.480;2023-09-08T13:28:25;31.40;67.20
851;DHT22;412;51.400;7.480;2023-09-08T13:30:52;31.40;65.20
851;DHT22;412;51.400;7.480;2023-09-08T13:33:17;31.30;67.10
851;DHT22;412;51.400;7.480;2023-09-08T13:35:44;31.30;67.90
851;DHT22;412;51.400;7.480;2023-09-08T13:38:09;31.30;67.80
851;DHT22;412;51.400;7.480;2023-09-08T13:40:35;31.40;68.10
851;DHT22;412;51.400;7.480;2023-09-08T13:43:01;31.40;68.30
851;DHT22;412;51.400;7.480;2023-09-08T13:45:27;31.40;69.20
851;DHT22;412;51.400;7.480;2023-09-08T13:47:52;31.50;68.70
851;DHT22;412;51.400;7.480;2023-09-08T13:50:18;31.50;69.30
851;DHT22;412;51.400;7.480;2023-09-08T13:52:44;31.50;69.30
851;DHT22;412;51.400;7.480;2023-09-08T13:55:10;31.50;68.20
851;DHT22;412;51.400;7.480;2023-09-08T13:57:36;31.40;66.80
851;DHT22;412;51.400;7.480;2023-09-08T14:00:03;31.40;70.70
851;DHT22;412;51.400;7.480;2023-09-08T14:02:29;31.30;64.60
851;DHT22;412;51.400;7.480;2023-09-08T14:04:55;31.30;66.80
851;DHT22;412;51.400;7.480;2023-09-08T14:07:21;31.30;63.60
851;DHT22;412;51.400;7.480;2023-09-08T14:09:47;31.20;67.10
851;DHT22;412;51.400;7.480;2023-09-08T14:12:12;31.30;67.50
851;DHT22;412;51.400;7.480;2023-09-08T14:14:38;31.30;67.40
851;DHT22;412;51.400;7.480;2023-09-08T14:17:04;31.30;67.80
851;DHT22;412;51.400;7.480;2023-09-08T14:19:30;31.30;69.00
851;DHT22;412;51.400;7.480;2023-09-08T14:21:56;31.20;66.10
851;DHT22;412;51.400;7.480;2023-09-08T14:24:22;31.20;68.40
851;DHT22;412;51.400;7.480;2023-09-08T14:26:48;31.20;64.10
851;DHT22;412;51.400;7.480;2023-09-08T14:29:14;31.10;64.10
851;DHT22;412;51.400;7.480;2023-09-08T14:31:40;31.00;67.00
851;DHT22;412;51.400;7.480;2023-09-08T14:34:06;31.00;66.20
851;DHT22;412;51.400;7.480;2023-09-08T14:36:31;31.10;68.70
851;DHT22;412;51.400;7.480;2023-09-08T14:38:59;31.00;67.00
851;DHT22;412;51.400;7.480;2023-09-08T14:41:25;31.00;62.90
851;DHT22;412;51.400;7.480;2023-09-08T14:43:51;31.00;64.00
851;DHT22;412;51.400;7.480;2023-09-08T14:46:19;31.00;61.10
851;DHT22;412;51.400;7.480;2023-09-08T14:48:45;30.90;59.90
851;DHT22;412;51.400;7.480;2023-09-08T14:51:11;31.00;63.60
851;DHT22;412;51.400;7.480;2023-09-08T14:53:37;31.10;61.80
851;DHT22;412;51.400;7.480;2023-09-08T14:56:03;31.10;61.90
851;DHT22;412;51.400;7.480;2023-09-08T14:58:30;31.00;59.70
851;DHT22;412;51.400;7.480;2023-09-08T15:01:00;31.00;64.90
851;DHT22;412;51.400;7.480;2023-09-08T15:03:36;31.10;62.50
851;DHT22;412;51.400;7.480;2023-09-08T15:06:02;31.00;61.70
851;DHT22;412;51.400;7.480;2023-09-08T15:08:28;30.90;61.30
851;DHT22;412;51.400;7.480;2023-09-08T15:10:54;30.90;62.80
851;DHT22;412;51.400;7.480;2023-09-08T15:13:19;30.90;64.00
851;DHT22;412;51.400;7.480;2023-09-08T15:15:45;30.90;61.30
851;DHT22;412;51.400;7.480;2023-09-08T15:18:11;30.90;62.40
851;DHT22;412;51.400;7.480;2023-09-08T15:20:37;30.90;63.70
851;DHT22;412;51.400;7.480;2023-09-08T15:23:03;31.00;63.90
851;DHT22;412;51.400;7.480;2023-09-08T15:25:29;30.90;62.50
851;DHT22;412;51.400;7.480;2023-09-08T15:27:55;30.90;63.40
851;DHT22;412;51.400;7.480;2023-09-08T15:30:20;30.80;63.00
851;DHT22;412;51.400;7.480;2023-09-08T15:32:46;30.70;63.00
851;DHT22;412;51.400;7.480;2023-09-08T15:35:12;30.60;64.30
851;DHT22;412;51.400;7.480;2023-09-08T15:37:38;30.60;64.60
851;DHT22;412;51.400;7.480;2023-09-08T15:40:04;30.40;64.00
851;DHT22;412;51.400;7.480;2023-09-08T15:42:30;30.50;62.40
851;DHT22;412;51.400;7.480;2023-09-08T15:44:57;30.50;61.80
851;DHT22;412;51.400;7.480;2023-09-08T15:47:23;30.40;63.10
851;DHT22;412;51.400;7.480;2023-09-08T15:49:49;30.30;63.60
851;DHT22;412;51.400;7.480;2023-09-08T15:52:14;30.30;62.60
851;DHT22;412;51.400;7.480;2023-09-08T15:54:40;30.20;63.30
851;DHT22;412;51.400;7.480;2023-09-08T15:57:06;30.20;62.10
851;DHT22;412;51.400;7.480;2023-09-08T15:59:33;30.20;61.90
851;DHT22;412;51.400;7.480;2023-09-08T16:01:58;30.30;60.40
851;DHT22;412;51.400;7.480;2023-09-08T16:04:24;30.30;59.70
851;DHT22;412;51.400;7.480;2023-09-08T16:06:50;30.20;59.10
851;DHT22;412;51.400;7.480;2023-09-08T16:09:16;30.10;61.40
851;DHT22;412;51.400;7.480;2023-09-08T16:11:41;30.10;60.50
851;DHT22;412;51.400;7.480;2023-09-08T16:14:07;30.00;59.90
851;DHT22;412;51.400;7.480;2023-09-08T16:16:33;30.00;61.70
851;DHT22;412;51.400;7.480;2023-09-08T16:19:01;29.80;59.50
851;DHT22;412;51.400;7.480;2023-09-08T16:21:27;29.80;61.10
851;DHT22;412;51.400;7.480;2023-09-08T16:23:52;29.70;61.70
851;DHT22;412;51.400;7.480;2023-09-08T16:26:18;29.60;63.00
851;DHT22;412;51.400;7.480;2023-09-08T16:28:44;29.60;63.30
851;DHT22;412;51.400;7.480;2023-09-08T16:31:10;29.50;61.50
851;DHT22;412;51.400;7.480;2023-09-08T16:33:35;29.50;62.70
851;DHT22;412;51.400;7.480;2023-09-08T16:36:02;29.40;64.60
851;DHT22;412;51.400;7.480;2023-09-08T16:38:28;29.40;67.00
851;DHT22;412;51.400;7.480;2023-09-08T16:40:53;29.30;66.60